sensor_id;sensor_type;location;lat;lon;timestamp;P1;durP1;ratioP1;P2;durP2;ratioP2
32096;SDS011;18610;49.916;8.284;2023-11-18T00:00:33;39.22;;;16.05;;
32096;SDS011;18610;49.916;8.284;2023-11-18T00:03:01;28.58;;;16.35;;
32096;SDS011;18610;49.916;8.284;2023-11-18T00:05:30;26.90;;;16.13;;
32096;SDS011;18610;49.916;8.284;2023-11-18T00:07:57;25.80;;;16.17;;
32096;SDS011;18610;49.916;8.284;2023-11-18T00:10:24;23.30;;;14.48;;
32096;SDS011;18610;49.916;8.284;2023-11-18T00:12:50;30.83;;;15.93;;
32096;SDS011;18610;49.916;8.284;2023-11-18T00:15:17;30.02;;;17.05;;
32096;SDS011;18610;49.916;8.284;2023-11-18T00:17:45;29.30;;;15.00;;
32096;SDS011;18610;49.916;8.284;2023-11-18T00:20:13;25.30;;;15.57;;
32096;SDS011;18610;49.916;8.284;2023-11-18T00:22:41;24.52;;;14.93;;
32096;SDS011;18610;49.916;8.284;2023-11-18T00:25:08;30.88;;;15.35;;
32096;SDS011;18610;49.916;8.284;2023-11-18T00:27:35;25.52;;;15.88;;
32096;SDS011;18610;49.916;8.284;2023-11-18T00:30:02;27.08;;;15.45;;
32096;SDS011;18610;49.916;8.284;2023-11-18T00:32:33;24.08;;;14.88;;
32096;SDS011;18610;49.916;8.284;2023-11-18T00:35:00;21.52;;;14.43;;
32096;SDS011;18610;49.916;8.284;2023-11-18T00:37:28;27.73;;;15.38;;
32096;SDS011;18610;49.916;8.284;2023-11-18T00:39:54;31.10;;;16.20;;
32096;SDS011;18610;49.916;8.284;2023-11-18T00:42:22;25.50;;;16.00;;
32096;SDS011;18610;49.916;8.284;2023-11-18T00:44:48;25.40;;;15.50;;
32096;SDS011;18610;49.916;8.284;2023-11-18T00:47:15;27.98;;;15.02;;
32096;SDS011;18610;49.916;8.284;2023-11-18T00:49:42;23.33;;;14.18;;
32096;SDS011;18610;49.916;8.284;2023-11-18T00:52:08;25.42;;;14.77;;
32096;SDS011;18610;49.916;8.284;2023-11-18T00:54:36;20.05;;;14.10;;
32096;SDS011;18610;49.916;8.284;2023-11-18T00:57:03;27.75;;;14.60;;
32096;SDS011;18610;49.916;8.284;2023-11-18T00:59:31;26.33;;;15.93;;
32096;SDS011;18610;49.916;8.284;2023-11-18T01:01:57;25.45;;;16.45;;
32096;SDS011;18610;49.916;8.284;2023-11-18T01:04:24;30.80;;;15.43;;
32096;SDS011;18610;49.916;8.284;2023-11-18T01:06:51;26.33;;;16.05;;
32096;SDS011;18610;49.916;8.284;2023-11-18T01:09:18;27.30;;;15.20;;
32096;SDS011;18610;49.916;8.284;2023-11-18T01:11:46;23.92;;;14.40;;
32096;SDS011;18610;49.916;8.284;2023-11-18T01:14:12;25.27;;;13.48;;
32096;SDS011;18610;49.916;8.284;2023-11-18T01:16:39;26.13;;;14.70;;
32096;SDS011;18610;49.916;8.284;2023-11-18T01:19:06;27.90;;;15.13;;
32096;SDS011;18610;49.916;8.284;2023-11-18T01:21:34;24.10;;;15.10;;
32096;SDS011;18610;49.916;8.284;2023-11-18T01:24:01;25.38;;;14.55;;
32096;SDS011;18610;49.916;8.284;2023-11-18T01:26:28;25.38;;;15.38;;
32096;SDS011;18610;49.916;8.284;2023-11-18T01:28:56;27.73;;;14.88;;
32096;SDS011;18610;49.916;8.284;2023-11-18T01:31:23;26.08;;;14.90;;
32096;SDS011;18610;49.916;8.284;2023-11-18T01:33:49;23.25;;;13.80;;
32096;SDS011;18610;49.916;8.284;2023-11-18T01:36:16;23.38;;;13.80;;
32096;SDS011;18610;49.916;8.284;2023-11-18T01:38:43;25.10;;;14.45;;
32096;SDS011;18610;49.916;8.284;2023-11-18T01:41:11;28.80;;;15.55;;
32096;SDS011;18610;49.916;8.284;2023-11-18T01:43:38;23.13;;;14.40;;
32096;SDS011;18610;49.916;8.284;2023-11-18T01:46:08;31.88;;;14.88;;
32096;SDS011;18610;49.916;8.284;2023-11-18T01:48:38;22.25;;;13.43;;
32096;SDS011;18610;49.916;8.284;2023-11-18T01:51:07;22.63;;;13.68;;
32096;SDS011;18610;49.916;8.284;2023-11-18T01:53:35;21.98;;;12.93;;
32096;SDS011;18610;49.916;8.284;2023-11-18T01:56:03;24.50;;;13.93;;
32096;SDS011;18610;49.916;8.284;2023-11-18T01:58:31;22.48;;;13.75;;
32096;SDS011;18610;49.916;8.284;2023-11-18T02:01:00;22.15;;;13.40;;
32096;SDS011;18610;49.916;8.284;2023-11-18T02:03:29;24.52;;;13.70;;
32096;SDS011;18610;49.916;8.284;2023-11-18T02:05:56;25.13;;;13.65;;
32096;SDS011;18610;49.916;8.284;2023-11-18T02:08:23;23.02;;;14.07;;
32096;SDS011;18610;49.916;8.284;2023-11-18T02:10:54;21.45;;;12.80;;
32096;SDS011;18610;49.916;8.284;2023-11-18T02:13:27;26.75;;;13.48;;
32096;SDS011;18610;49.916;8.284;2023-11-18T02:15:59;20.85;;;12.90;;
32096;SDS011;18610;49.916;8.284;2023-11-18T02:18:29;25.95;;;12.57;;
32096;SDS011;18610;49.916;8.284;2023-11-18T02:20:56;18.75;;;12.05;;
32096;SDS011;18610;49.916;8.284;2023-11-18T02:23:23;21.13;;;12.70;;
32096;SDS011;18610;49.916;8.284;2023-11-18T02:25:52;25.45;;;13.73;;
32096;SDS011;18610;49.916;8.284;2023-11-18T02:28:20;24.40;;;12.93;;
32096;SDS011;18610;49.916;8.284;2023-11-18T02:30:47;24.08;;;12.80;;
32096;SDS011;18610;49.916;8.284;2023-11-18T02:33:19;22.00;;;12.70;;
32096;SDS011;18610;49.916;8.284;2023-11-18T02:35:54;22.10;;;12.68;;
32096;SDS011;18610;49.916;8.284;2023-11-18T02:38:27;23.85;;;13.57;;
32096;SDS011;18610;49.916;8.284;2023-11-18T02:40:59;23.73;;;13.98;;
32096;SDS011;18610;49.916;8.284;2023-11-18T02:43:34;24.73;;;14.13;;
32096;SDS011;18610;49.916;8.284;2023-11-18T02:46:02;22.33;;;13.05;;
32096;SDS011;18610;49.916;8.284;2023-11-18T02:48:31;25.05;;;14.10;;
32096;SDS011;18610;49.916;8.284;2023-11-18T02:50:58;27.63;;;15.05;;
32096;SDS011;18610;49.916;8.284;2023-11-18T02:53:25;27.75;;;15.07;;
32096;SDS011;18610;49.916;8.284;2023-11-18T02:55:52;26.00;;;13.95;;
32096;SDS011;18610;49.916;8.284;2023-11-18T02:58:20;23.40;;;13.30;;
32096;SDS011;18610;49.916;8.284;2023-11-18T03:00:47;25.80;;;14.25;;
32096;SDS011;18610;49.916;8.284;2023-11-18T03:03:13;26.50;;;14.82;;
32096;SDS011;18610;49.916;8.284;2023-11-18T03:05:40;26.80;;;14.38;;
32096;SDS011;18610;49.916;8.284;2023-11-18T03:08:07;23.05;;;13.40;;
32096;SDS011;18610;49.916;8.284;2023-11-18T03:10:33;22.65;;;14.75;;
32096;SDS011;18610;49.916;8.284;2023-11-18T03:13:00;22.00;;;13.90;;
32096;SDS011;18610;49.916;8.284;2023-11-18T03:15:28;25.25;;;12.43;;
32096;SDS011;18610;49.916;8.284;2023-11-18T03:17:55;24.58;;;15.52;;
32096;SDS011;18610;49.916;8.284;2023-11-18T03:20:22;23.38;;;13.85;;
32096;SDS011;18610;49.916;8.284;2023-11-18T03:22:51;26.48;;;14.80;;
32096;SDS011;18610;49.916;8.284;2023-11-18T03:25:18;26.52;;;15.05;;
32096;SDS011;18610;49.916;8.284;2023-11-18T03:27:46;29.42;;;15.90;;
32096;SDS011;18610;49.916;8.284;2023-11-18T03:30:13;26.60;;;14.73;;
32096;SDS011;18610;49.916;8.284;2023-11-18T03:32:43;27.20;;;15.18;;
32096;SDS011;18610;49.916;8.284;2023-11-18T03:35:10;28.60;;;15.18;;
32096;SDS011;18610;49.916;8.284;2023-11-18T03:37:37;27.70;;;15.00;;
32096;SDS011;18610;49.916;8.284;2023-11-18T03:40:06;28.88;;;15.73;;
32096;SDS011;18610;49.916;8.284;2023-11-18T03:42:33;26.35;;;15.73;;
32096;SDS011;18610;49.916;8.284;2023-11-18T03:45:00;31.67;;;14.48;;
32096;SDS011;18610;49.916;8.284;2023-11-18T03:47:27;24.40;;;14.32;;
32096;SDS011;18610;49.916;8.284;2023-11-18T03:49:56;22.63;;;13.63;;
32096;SDS011;18610;49.916;8.284;2023-11-18T03:52:23;25.27;;;13.75;;
32096;SDS011;18610;49.916;8.284;2023-11-18T03:54:50;22.75;;;13.25;;
32096;SDS011;18610;49.916;8.284;2023-11-18T03:57:17;23.75;;;12.52;;
32096;SDS011;18610;49.916;8.284;2023-11-18T03:59:44;28.02;;;13.15;;
32096;SDS011;18610;49.916;8.284;2023-11-18T04:02:10;25.52;;;15.23;;
32096;SDS011;18610;49.916;8.284;2023-11-18T04:04:37;27.73;;;14.55;;
32096;SDS011;18610;49.916;8.284;2023-11-18T04:07:05;25.67;;;13.82;;
32096;SDS011;18610;49.916;8.284;2023-11-18T04:09:32;21.33;;;12.27;;
32096;SDS011;18610;49.916;8.284;2023-11-18T04:11:59;20.88;;;13.00;;
32096;SDS011;18610;49.916;8.284;2023-11-18T04:14:26;23.85;;;12.73;;
32096;SDS011;18610;49.916;8.284;2023-11-18T04:16:53;27.85;;;14.77;;
32096;SDS011;18610;49.916;8.284;2023-11-18T04:19:22;24.98;;;13.45;;
32096;SDS011;18610;49.916;8.284;2023-11-18T04:21:49;35.90;;;13.68;;
32096;SDS011;18610;49.916;8.284;2023-11-18T04:24:17;22.55;;;14.35;;
32096;SDS011;18610;49.916;8.284;2023-11-18T04:26:43;25.00;;;14.98;;
32096;SDS011;18610;49.916;8.284;2023-11-18T04:29:11;22.95;;;15.00;;
32096;SDS011;18610;49.916;8.284;2023-11-18T04:31:37;28.65;;;14.52;;
32096;SDS011;18610;49.916;8.284;2023-11-18T04:34:04;28.00;;;15.80;;
32096;SDS011;18610;49.916;8.284;2023-11-18T04:36:31;27.45;;;15.88;;
32096;SDS011;18610;49.916;8.284;2023-11-18T04:38:58;26.88;;;14.90;;
32096;SDS011;18610;49.916;8.284;2023-11-18T04:41:26;25.38;;;14.82;;
32096;SDS011;18610;49.916;8.284;2023-11-18T04:43:52;26.73;;;14.40;;
32096;SDS011;18610;49.916;8.284;2023-11-18T04:46:20;23.23;;;14.48;;
32096;SDS011;18610;49.916;8.284;2023-11-18T04:48:47;24.20;;;14.93;;
32096;SDS011;18610;49.916;8.284;2023-11-18T04:51:13;26.08;;;14.50;;
32096;SDS011;18610;49.916;8.284;2023-11-18T04:53:42;26.13;;;13.48;;
32096;SDS011;18610;49.916;8.284;2023-11-18T04:56:10;25.65;;;13.98;;
32096;SDS011;18610;49.916;8.284;2023-11-18T04:58:38;24.63;;;13.85;;
32096;SDS011;18610;49.916;8.284;2023-11-18T05:01:05;26.48;;;14.65;;
32096;SDS011;18610;49.916;8.284;2023-11-18T05:03:32;24.05;;;14.35;;
32096;SDS011;18610;49.916;8.284;2023-11-18T05:05:58;25.88;;;13.85;;
32096;SDS011;18610;49.916;8.284;2023-11-18T05:08:25;22.95;;;14.25;;
32096;SDS011;18610;49.916;8.284;2023-11-18T05:10:52;30.08;;;15.38;;
32096;SDS011;18610;49.916;8.284;2023-11-18T05:13:19;22.83;;;14.40;;
32096;SDS011;18610;49.916;8.284;2023-11-18T05:15:48;26.92;;;14.70;;
32096;SDS011;18610;49.916;8.284;2023-11-18T05:18:15;28.98;;;14.93;;
32096;SDS011;18610;49.916;8.284;2023-11-18T05:20:41;24.30;;;14.48;;
32096;SDS011;18610;49.916;8.284;2023-11-18T05:23:08;26.52;;;14.40;;
32096;SDS011;18610;49.916;8.284;2023-11-18T05:25:36;25.40;;;15.60;;
32096;SDS011;18610;49.916;8.284;2023-11-18T05:28:03;26.58;;;14.80;;
32096;SDS011;18610;49.916;8.284;2023-11-18T05:30:33;37.55;;;15.10;;
32096;SDS011;18610;49.916;8.284;2023-11-18T05:33:03;24.13;;;15.32;;
32096;SDS011;18610;49.916;8.284;2023-11-18T05:35:30;25.67;;;15.35;;
32096;SDS011;18610;49.916;8.284;2023-11-18T05:37:57;23.15;;;14.95;;
32096;SDS011;18610;49.916;8.284;2023-11-18T05:40:25;27.23;;;15.43;;
32096;SDS011;18610;49.916;8.284;2023-11-18T05:42:55;28.48;;;17.48;;
32096;SDS011;18610;49.916;8.284;2023-11-18T05:45:23;29.13;;;15.63;;
32096;SDS011;18610;49.916;8.284;2023-11-18T05:47:56;29.33;;;15.38;;
32096;SDS011;18610;49.916;8.284;2023-11-18T05:50:25;27.30;;;15.77;;
32096;SDS011;18610;49.916;8.284;2023-11-18T05:52:52;29.83;;;16.48;;
32096;SDS011;18610;49.916;8.284;2023-11-18T05:55:20;28.67;;;15.63;;
32096;SDS011;18610;49.916;8.284;2023-11-18T05:57:46;35.03;;;15.77;;
32096;SDS011;18610;49.916;8.284;2023-11-18T06:00:13;28.83;;;16.70;;
32096;SDS011;18610;49.916;8.284;2023-11-18T06:02:42;27.27;;;15.88;;
32096;SDS011;18610;49.916;8.284;2023-11-18T06:05:09;30.52;;;16.73;;
32096;SDS011;18610;49.916;8.284;2023-11-18T06:07:38;27.40;;;16.88;;
32096;SDS011;18610;49.916;8.284;2023-11-18T06:10:08;28.38;;;16.02;;
32096;SDS011;18610;49.916;8.284;2023-11-18T06:12:37;30.67;;;15.73;;
32096;SDS011;18610;49.916;8.284;2023-11-18T06:15:06;27.42;;;15.45;;
32096;SDS011;18610;49.916;8.284;2023-11-18T06:17:34;29.38;;;18.02;;
32096;SDS011;18610;49.916;8.284;2023-11-18T06:20:02;28.48;;;17.08;;
32096;SDS011;18610;49.916;8.284;2023-11-18T06:22:31;40.13;;;18.38;;
32096;SDS011;18610;49.916;8.284;2023-11-18T06:24:59;36.83;;;19.13;;
32096;SDS011;18610;49.916;8.284;2023-11-18T06:27:26;34.13;;;18.35;;
32096;SDS011;18610;49.916;8.284;2023-11-18T06:29:52;34.33;;;19.30;;
32096;SDS011;18610;49.916;8.284;2023-11-18T06:32:20;35.50;;;17.50;;
32096;SDS011;18610;49.916;8.284;2023-11-18T06:34:46;32.75;;;18.30;;
32096;SDS011;18610;49.916;8.284;2023-11-18T06:37:14;44.75;;;19.60;;
32096;SDS011;18610;49.916;8.284;2023-11-18T06:39:41;33.47;;;18.17;;
32096;SDS011;18610;49.916;8.284;2023-11-18T06:42:11;38.17;;;18.33;;
32096;SDS011;18610;49.916;8.284;2023-11-18T06:44:39;35.70;;;17.50;;
32096;SDS011;18610;49.916;8.284;2023-11-18T06:47:05;31.45;;;18.00;;
32096;SDS011;18610;49.916;8.284;2023-11-18T06:49:32;29.20;;;17.02;;
32096;SDS011;18610;49.916;8.284;2023-11-18T06:52:02;31.58;;;17.48;;
32096;SDS011;18610;49.916;8.284;2023-11-18T06:54:29;39.72;;;16.90;;
32096;SDS011;18610;49.916;8.284;2023-11-18T06:56:58;34.83;;;17.60;;
32096;SDS011;18610;49.916;8.284;2023-11-18T06:59:26;36.97;;;17.23;;
32096;SDS011;18610;49.916;8.284;2023-11-18T07:01:53;27.38;;;15.82;;
32096;SDS011;18610;49.916;8.284;2023-11-18T07:04:19;29.40;;;16.25;;
32096;SDS011;18610;49.916;8.284;2023-11-18T07:06:46;30.83;;;16.02;;
32096;SDS011;18610;49.916;8.284;2023-11-18T07:09:12;34.10;;;17.60;;
32096;SDS011;18610;49.916;8.284;2023-11-18T07:11:42;29.73;;;17.02;;
32096;SDS011;18610;49.916;8.284;2023-11-18T07:14:12;33.20;;;18.23;;
32096;SDS011;18610;49.916;8.284;2023-11-18T07:16:41;34.78;;;16.98;;
32096;SDS011;18610;49.916;8.284;2023-11-18T07:19:08;36.22;;;18.67;;
32096;SDS011;18610;49.916;8.284;2023-11-18T07:21:40;30.38;;;17.27;;
32096;SDS011;18610;49.916;8.284;2023-11-18T07:24:07;35.67;;;17.95;;
32096;SDS011;18610;49.916;8.284;2023-11-18T07:26:34;31.02;;;16.90;;
32096;SDS011;18610;49.916;8.284;2023-11-18T07:29:01;33.42;;;16.65;;
32096;SDS011;18610;49.916;8.284;2023-11-18T07:31:27;31.75;;;17.77;;
32096;SDS011;18610;49.916;8.284;2023-11-18T07:33:55;36.22;;;18.85;;
32096;SDS011;18610;49.916;8.284;2023-11-18T07:36:22;32.53;;;16.50;;
32096;SDS011;18610;49.916;8.284;2023-11-18T07:38:49;41.20;;;18.08;;
32096;SDS011;18610;49.916;8.284;2023-11-18T07:41:16;40.83;;;18.60;;
32096;SDS011;18610;49.916;8.284;2023-11-18T07:43:49;32.97;;;17.85;;
32096;SDS011;18610;49.916;8.284;2023-11-18T07:46:17;34.22;;;17.17;;
32096;SDS011;18610;49.916;8.284;2023-11-18T07:48:47;37.75;;;17.80;;
32096;SDS011;18610;49.916;8.284;2023-11-18T07:51:15;31.40;;;17.95;;
32096;SDS011;18610;49.916;8.284;2023-11-18T07:53:42;30.98;;;16.65;;
32096;SDS011;18610;49.916;8.284;2023-11-18T07:56:08;37.08;;;18.75;;
32096;SDS011;18610;49.916;8.284;2023-11-18T07:58:37;40.50;;;17.90;;
32096;SDS011;18610;49.916;8.284;2023-11-18T08:01:04;31.88;;;18.08;;
32096;SDS011;18610;49.916;8.284;2023-11-18T08:03:32;36.63;;;19.77;;
32096;SDS011;18610;49.916;8.284;2023-11-18T08:05:59;37.13;;;19.23;;
32096;SDS011;18610;49.916;8.284;2023-11-18T08:08:28;30.25;;;17.63;;
32096;SDS011;18610;49.916;8.284;2023-11-18T08:10:57;38.58;;;18.23;;
32096;SDS011;18610;49.916;8.284;2023-11-18T08:13:25;36.13;;;18.80;;
32096;SDS011;18610;49.916;8.284;2023-11-18T08:15:52;38.40;;;18.23;;
32096;SDS011;18610;49.916;8.284;2023-11-18T08:18:18;33.58;;;18.63;;
32096;SDS011;18610;49.916;8.284;2023-11-18T08:20:46;32.58;;;18.92;;
32096;SDS011;18610;49.916;8.284;2023-11-18T08:23:13;38.40;;;18.90;;
32096;SDS011;18610;49.916;8.284;2023-11-18T08:25:41;37.13;;;18.05;;
32096;SDS011;18610;49.916;8.284;2023-11-18T08:28:09;45.47;;;21.98;;
32096;SDS011;18610;49.916;8.284;2023-11-18T08:30:39;39.42;;;20.52;;
32096;SDS011;18610;49.916;8.284;2023-11-18T08:33:05;42.55;;;21.08;;
32096;SDS011;18610;49.916;8.284;2023-11-18T08:35:34;38.70;;;20.70;;
32096;SDS011;18610;49.916;8.284;2023-11-18T08:38:00;38.00;;;19.10;;
32096;SDS011;18610;49.916;8.284;2023-11-18T08:40:29;42.47;;;20.30;;
32096;SDS011;18610;49.916;8.284;2023-11-18T08:42:57;34.15;;;19.05;;
32096;SDS011;18610;49.916;8.284;2023-11-18T08:45:24;34.45;;;18.50;;
32096;SDS011;18610;49.916;8.284;2023-11-18T08:47:54;36.67;;;19.63;;
32096;SDS011;18610;49.916;8.284;2023-11-18T08:50:22;35.05;;;19.27;;
32096;SDS011;18610;49.916;8.284;2023-11-18T08:52:50;33.42;;;20.05;;
32096;SDS011;18610;49.916;8.284;2023-11-18T08:55:23;33.63;;;20.42;;
32096;SDS011;18610;49.916;8.284;2023-11-18T08:58:05;40.53;;;22.20;;
32096;SDS011;18610;49.916;8.284;2023-11-18T09:00:41;38.83;;;21.20;;
32096;SDS011;18610;49.916;8.284;2023-11-18T09:03:16;45.25;;;21.77;;
32096;SDS011;18610;49.916;8.284;2023-11-18T09:05:49;45.00;;;20.98;;
32096;SDS011;18610;49.916;8.284;2023-11-18T09:08:23;39.35;;;21.90;;
32096;SDS011;18610;49.916;8.284;2023-11-18T09:10:50;43.70;;;20.65;;
32096;SDS011;18610;49.916;8.284;2023-11-18T09:13:21;48.33;;;20.60;;
32096;SDS011;18610;49.916;8.284;2023-11-18T09:15:50;41.72;;;22.40;;
32096;SDS011;18610;49.916;8.284;2023-11-18T09:18:17;48.25;;;22.05;;
32096;SDS011;18610;49.916;8.284;2023-11-18T09:20:44;48.92;;;21.90;;
32096;SDS011;18610;49.916;8.284;2023-11-18T09:23:12;46.88;;;22.27;;
32096;SDS011;18610;49.916;8.284;2023-11-18T09:25:40;57.90;;;26.27;;
32096;SDS011;18610;49.916;8.284;2023-11-18T09:28:07;54.72;;;24.35;;
32096;SDS011;18610;49.916;8.284;2023-11-18T09:30:36;49.38;;;24.10;;
32096;SDS011;18610;49.916;8.284;2023-11-18T09:33:14;46.88;;;23.17;;
32096;SDS011;18610;49.916;8.284;2023-11-18T09:35:50;60.28;;;23.58;;
32096;SDS011;18610;49.916;8.284;2023-11-18T09:38:20;43.13;;;23.27;;
32096;SDS011;18610;49.916;8.284;2023-11-18T09:40:48;45.20;;;22.45;;
32096;SDS011;18610;49.916;8.284;2023-11-18T09:43:17;50.28;;;22.88;;
32096;SDS011;18610;49.916;8.284;2023-11-18T09:45:47;48.67;;;23.15;;
32096;SDS011;18610;49.916;8.284;2023-11-18T09:48:15;47.88;;;24.10;;
32096;SDS011;18610;49.916;8.284;2023-11-18T09:50:50;44.50;;;20.60;;
32096;SDS011;18610;49.916;8.284;2023-11-18T09:53:17;46.72;;;22.67;;
32096;SDS011;18610;49.916;8.284;2023-11-18T09:55:48;43.75;;;21.58;;
32096;SDS011;18610;49.916;8.284;2023-11-18T09:58:20;53.15;;;23.33;;
32096;SDS011;18610;49.916;8.284;2023-11-18T10:00:50;49.25;;;23.63;;
32096;SDS011;18610;49.916;8.284;2023-11-18T10:03:22;46.88;;;23.65;;
32096;SDS011;18610;49.916;8.284;2023-11-18T10:05:49;48.25;;;23.08;;
32096;SDS011;18610;49.916;8.284;2023-11-18T10:08:19;60.45;;;25.23;;
32096;SDS011;18610;49.916;8.284;2023-11-18T10:10:50;64.60;;;24.05;;
32096;SDS011;18610;49.916;8.284;2023-11-18T10:13:30;52.15;;;25.80;;
32096;SDS011;18610;49.916;8.284;2023-11-18T10:16:00;49.15;;;23.75;;
32096;SDS011;18610;49.916;8.284;2023-11-18T10:18:30;55.78;;;26.70;;
32096;SDS011;18610;49.916;8.284;2023-11-18T10:21:00;49.08;;;25.25;;
32096;SDS011;18610;49.916;8.284;2023-11-18T10:23:29;72.32;;;27.05;;
32096;SDS011;18610;49.916;8.284;2023-11-18T10:25:58;51.97;;;25.73;;
32096;SDS011;18610;49.916;8.284;2023-11-18T10:28:26;52.45;;;27.45;;
32096;SDS011;18610;49.916;8.284;2023-11-18T10:30:55;63.20;;;26.70;;
32096;SDS011;18610;49.916;8.284;2023-11-18T10:33:25;49.92;;;25.65;;
32096;SDS011;18610;49.916;8.284;2023-11-18T10:35:55;46.45;;;26.30;;
32096;SDS011;18610;49.916;8.284;2023-11-18T10:38:23;63.42;;;27.40;;
32096;SDS011;18610;49.916;8.284;2023-11-18T10:40:54;51.50;;;27.65;;
32096;SDS011;18610;49.916;8.284;2023-11-18T10:43:22;48.55;;;25.85;;
32096;SDS011;18610;49.916;8.284;2023-11-18T10:45:51;47.65;;;27.05;;
32096;SDS011;18610;49.916;8.284;2023-11-18T10:48:18;54.03;;;26.10;;
32096;SDS011;18610;49.916;8.284;2023-11-18T10:50:48;41.75;;;23.80;;
32096;SDS011;18610;49.916;8.284;2023-11-18T10:53:16;45.97;;;24.67;;
32096;SDS011;18610;49.916;8.284;2023-11-18T10:55:46;37.30;;;22.73;;
32096;SDS011;18610;49.916;8.284;2023-11-18T10:58:15;27.02;;;17.95;;
32096;SDS011;18610;49.916;8.284;2023-11-18T11:00:48;24.98;;;15.45;;
32096;SDS011;18610;49.916;8.284;2023-11-18T11:03:18;19.60;;;13.88;;
32096;SDS011;18610;49.916;8.284;2023-11-18T11:05:49;18.45;;;12.15;;
32096;SDS011;18610;49.916;8.284;2023-11-18T11:08:19;19.75;;;11.65;;
32096;SDS011;18610;49.916;8.284;2023-11-18T11:10:46;17.45;;;9.95;;
32096;SDS011;18610;49.916;8.284;2023-11-18T11:13:14;16.75;;;10.18;;
32096;SDS011;18610;49.916;8.284;2023-11-18T11:15:44;15.60;;;9.18;;
32096;SDS011;18610;49.916;8.284;2023-11-18T11:18:19;16.58;;;9.77;;
32096;SDS011;18610;49.916;8.284;2023-11-18T11:20:57;15.88;;;10.38;;
32096;SDS011;18610;49.916;8.284;2023-11-18T11:23:30;12.20;;;9.10;;
32096;SDS011;18610;49.916;8.284;2023-11-18T11:26:12;16.08;;;10.73;;
32096;SDS011;18610;49.916;8.284;2023-11-18T11:28:55;13.35;;;9.52;;
32096;SDS011;18610;49.916;8.284;2023-11-18T11:31:30;12.20;;;9.68;;
32096;SDS011;18610;49.916;8.284;2023-11-18T11:34:03;16.30;;;9.98;;
32096;SDS011;18610;49.916;8.284;2023-11-18T11:36:35;25.40;;;10.35;;
32096;SDS011;18610;49.916;8.284;2023-11-18T11:39:08;15.77;;;8.07;;
32096;SDS011;18610;49.916;8.284;2023-11-18T11:44:09;22.30;;;10.20;;
32096;SDS011;18610;49.916;8.284;2023-11-18T11:46:37;13.45;;;8.80;;
32096;SDS011;18610;49.916;8.284;2023-11-18T11:49:07;18.20;;;9.35;;
32096;SDS011;18610;49.916;8.284;2023-11-18T11:51:45;14.82;;;9.57;;
32096;SDS011;18610;49.916;8.284;2023-11-18T11:54:16;19.15;;;10.98;;
32096;SDS011;18610;49.916;8.284;2023-11-18T11:56:47;16.85;;;9.15;;
32096;SDS011;18610;49.916;8.284;2023-11-18T11:59:28;14.68;;;8.77;;
32096;SDS011;18610;49.916;8.284;2023-11-18T12:02:02;19.08;;;9.82;;
32096;SDS011;18610;49.916;8.284;2023-11-18T12:04:32;17.73;;;8.52;;
32096;SDS011;18610;49.916;8.284;2023-11-18T12:07:04;17.55;;;9.80;;
32096;SDS011;18610;49.916;8.284;2023-11-18T12:09:31;23.90;;;10.52;;
32096;SDS011;18610;49.916;8.284;2023-11-18T12:12:03;17.38;;;10.10;;
32096;SDS011;18610;49.916;8.284;2023-11-18T12:14:40;19.60;;;11.27;;
32096;SDS011;18610;49.916;8.284;2023-11-18T12:17:15;17.33;;;9.52;;
32096;SDS011;18610;49.916;8.284;2023-11-18T12:19:47;22.40;;;10.60;;
32096;SDS011;18610;49.916;8.284;2023-11-18T12:22:16;20.05;;;9.35;;
32096;SDS011;18610;49.916;8.284;2023-11-18T12:27:57;23.85;;;11.00;;
32096;SDS011;18610;49.916;8.284;2023-11-18T12:33:20;13.05;;;9.57;;
32096;SDS011;18610;49.916;8.284;2023-11-18T12:42:20;15.75;;;8.13;;
32096;SDS011;18610;49.916;8.284;2023-11-18T12:45:36;15.93;;;8.52;;
32096;SDS011;18610;49.916;8.284;2023-11-18T12:48:19;12.77;;;7.75;;
32096;SDS011;18610;49.916;8.284;2023-11-18T12:50:52;19.17;;;9.32;;
32096;SDS011;18610;49.916;8.284;2023-11-18T12:53:20;12.88;;;8.48;;
32096;SDS011;18610;49.916;8.284;2023-11-18T12:55:49;15.07;;;7.97;;
32096;SDS011;18610;49.916;8.284;2023-11-18T12:58:18;12.63;;;7.10;;
32096;SDS011;18610;49.916;8.284;2023-11-18T13:00:48;15.85;;;7.55;;
32096;SDS011;18610;49.916;8.284;2023-11-18T13:03:14;14.18;;;7.40;;
32096;SDS011;18610;49.916;8.284;2023-11-18T13:05:43;15.40;;;7.00;;
32096;SDS011;18610;49.916;8.284;2023-11-18T13:08:10;12.68;;;8.35;;
32096;SDS011;18610;49.916;8.284;2023-11-18T13:10:40;12.77;;;6.82;;
32096;SDS011;18610;49.916;8.284;2023-11-18T13:13:08;19.35;;;7.68;;
32096;SDS011;18610;49.916;8.284;2023-11-18T13:15:40;11.73;;;7.57;;
32096;SDS011;18610;49.916;8.284;2023-11-18T13:18:06;18.55;;;6.93;;
32096;SDS011;18610;49.916;8.284;2023-11-18T13:20:34;9.35;;;6.10;;
32096;SDS011;18610;49.916;8.284;2023-11-18T13:23:01;9.93;;;6.47;;
32096;SDS011;18610;49.916;8.284;2023-11-18T13:28:00;8.77;;;6.20;;
32096;SDS011;18610;49.916;8.284;2023-11-18T13:30:27;12.52;;;7.57;;
32096;SDS011;18610;49.916;8.284;2023-11-18T13:32:55;17.88;;;6.07;;
32096;SDS011;18610;49.916;8.284;2023-11-18T13:35:22;14.20;;;7.00;;
32096;SDS011;18610;49.916;8.284;2023-11-18T13:37:49;15.63;;;7.25;;
32096;SDS011;18610;49.916;8.284;2023-11-18T13:40:18;10.57;;;6.55;;
32096;SDS011;18610;49.916;8.284;2023-11-18T13:42:45;18.63;;;6.65;;
32096;SDS011;18610;49.916;8.284;2023-11-18T13:45:12;36.95;;;19.58;;
32096;SDS011;18610;49.916;8.284;2023-11-18T13:47:48;28.08;;;16.50;;
32096;SDS011;18610;49.916;8.284;2023-11-18T13:50:17;18.13;;;7.03;;
32096;SDS011;18610;49.916;8.284;2023-11-18T13:52:44;13.10;;;6.88;;
32096;SDS011;18610;49.916;8.284;2023-11-18T13:55:11;10.88;;;7.28;;
32096;SDS011;18610;49.916;8.284;2023-11-18T13:57:46;17.15;;;6.90;;
32096;SDS011;18610;49.916;8.284;2023-11-18T14:00:14;12.07;;;5.10;;
32096;SDS011;18610;49.916;8.284;2023-11-18T14:02:42;13.20;;;5.68;;
32096;SDS011;18610;49.916;8.284;2023-11-18T14:05:14;14.43;;;5.90;;
32096;SDS011;18610;49.916;8.284;2023-11-18T14:07:43;9.82;;;6.22;;
32096;SDS011;18610;49.916;8.284;2023-11-18T14:10:12;12.07;;;5.78;;
32096;SDS011;18610;49.916;8.284;2023-11-18T14:12:39;11.63;;;6.22;;
32096;SDS011;18610;49.916;8.284;2023-11-18T14:15:07;16.80;;;6.25;;
32096;SDS011;18610;49.916;8.284;2023-11-18T14:17:35;13.13;;;6.20;;
32096;SDS011;18610;49.916;8.284;2023-11-18T14:20:01;9.55;;;5.97;;
32096;SDS011;18610;49.916;8.284;2023-11-18T14:22:31;10.13;;;5.68;;
32096;SDS011;18610;49.916;8.284;2023-11-18T14:24:59;8.55;;;5.20;;
32096;SDS011;18610;49.916;8.284;2023-11-18T14:27:26;11.32;;;5.85;;
32096;SDS011;18610;49.916;8.284;2023-11-18T14:29:53;15.80;;;6.80;;
32096;SDS011;18610;49.916;8.284;2023-11-18T14:32:20;16.25;;;6.70;;
32096;SDS011;18610;49.916;8.284;2023-11-18T14:34:47;10.02;;;5.68;;
32096;SDS011;18610;49.916;8.284;2023-11-18T14:37:14;12.40;;;5.60;;
32096;SDS011;18610;49.916;8.284;2023-11-18T14:39:41;5.95;;;4.82;;
32096;SDS011;18610;49.916;8.284;2023-11-18T14:42:09;10.52;;;5.85;;
32096;SDS011;18610;49.916;8.284;2023-11-18T14:44:36;11.88;;;5.95;;
32096;SDS011;18610;49.916;8.284;2023-11-18T14:47:03;11.70;;;5.70;;
32096;SDS011;18610;49.916;8.284;2023-11-18T14:49:32;9.07;;;5.72;;